Time;durP1;ratioP1;P1;durP2;ratioP2;P2;SDS_P1;SDS_P2;PMS_P1;PMS_P2;Temp;Humidity;BMP_temperature;BMP_pressure;BME280_temperature;BME280_humidity;BME280_pressure;Samples;Min_cycle;Max_cycle;Signal;HPM_P1;HPM_P2
2023/05/23 00:01:36;;;;;;;8.48;6.32;;;16.90;86.70;;;;;;6241341;22;20357;-83
2023/05/23 00:04:02;;;;;;;7.53;5.78;;;16.90;86.60;;;;;;6269465;22;20011;-85
2023/05/23 00:06:28;;;;;;;8.43;6.38;;;16.90;86.50;;;;;;6269206;22;20008;-84
2023/05/23 00:08:53;;;;;;;8.80;6.20;;;16.90;86.50;;;;;;6248331;22;20349;-85
2023/05/23 00:11:22;;;;;;;8.38;6.10;;;16.90;86.40;;;;;;6274306;22;20014;-86
2023/05/23 00:13:50;;;;;;;8.00;5.88;;;16.90;86.50;;;;;;6247234;22;20004;-86
2023/05/23 00:16:16;;;;;;;8.00;6.00;;;16.90;86.60;;;;;;6246160;22;19996;-87
2023/05/23 00:18:41;;;;;;;8.48;6.18;;;16.90;86.70;;;;;;6245765;22;20008;-86
2023/05/23 00:21:08;;;;;;;8.43;6.68;;;16.90;86.80;;;;;;6244593;22;20443;-86
2023/05/23 00:23:34;;;;;;;8.43;6.07;;;16.90;86.90;;;;;;6245017;22;20839;-85
2023/05/23 00:25:59;;;;;;;8.60;6.78;;;16.90;86.90;;;;;;6250135;22;20003;-87
2023/05/23 00:28:25;;;;;;;8.15;6.53;;;16.80;87.00;;;;;;6250238;22;20011;-86
2023/05/23 00:30:50;;;;;;;8.88;6.25;;;16.80;87.00;;;;;;6248098;22;20004;-86
2023/05/23 00:33:16;;;;;;;8.10;5.80;;;16.80;87.10;;;;;;6250204;22;20271;-86
2023/05/23 00:35:42;;;;;;;8.27;6.43;;;16.80;87.10;;;;;;6249416;22;20091;-86
2023/05/23 00:38:08;;;;;;;8.13;6.53;;;16.70;87.10;;;;;;6249848;22;20000;-86
2023/05/23 00:40:34;;;;;;;7.75;6.10;;;16.80;87.20;;;;;;6249752;22;20498;-86
2023/05/23 00:43:00;;;;;;;8.40;6.72;;;16.80;87.20;;;;;;6249531;22;20010;-86
2023/05/23 00:45:26;;;;;;;7.80;6.00;;;16.80;87.30;;;;;;6276764;22;20007;-87
2023/05/23 00:47:52;;;;;;;8.27;6.38;;;16.80;87.30;;;;;;6249192;22;20038;-85
2023/05/23 00:50:18;;;;;;;7.57;6.07;;;16.80;87.20;;;;;;6248748;22;19999;-86
2023/05/23 00:52:45;;;;;;;7.88;5.72;;;16.80;87.10;;;;;;6249175;22;20008;-87
2023/05/23 00:55:11;;;;;;;8.05;5.93;;;16.70;87.00;;;;;;6276214;22;20019;-85
2023/05/23 00:57:40;;;;;;;7.80;6.13;;;16.80;87.20;;;;;;6248875;22;19996;-86
2023/05/23 01:00:13;;;;;;;7.93;6.13;;;16.80;87.20;;;;;;6248746;22;20073;-84
2023/05/23 01:02:43;;;;;;;8.27;5.60;;;16.80;87.20;;;;;;6250609;22;20349;-85
2023/05/23 01:05:16;;;;;;;8.30;6.37;;;16.80;87.30;;;;;;6278118;22;20384;-86
2023/05/23 01:07:42;;;;;;;7.68;5.93;;;16.80;87.30;;;;;;6278515;22;20548;-86
2023/05/23 01:10:09;;;;;;;8.23;6.45;;;16.70;87.20;;;;;;6277266;22;20410;-85
2023/05/23 01:12:43;;;;;;;8.50;6.50;;;16.80;87.30;;;;;;6250206;22;20094;-86
2023/05/23 01:15:18;;;;;;;7.55;6.03;;;16.80;87.40;;;;;;6250338;22;20000;-85
2023/05/23 01:17:51;;;;;;;8.20;6.40;;;16.80;87.30;;;;;;6250546;22;20006;-85
2023/05/23 01:20:19;;;;;;;8.55;6.35;;;16.70;87.30;;;;;;6277683;22;20460;-85
2023/05/23 01:23:00;;;;;;;8.15;5.97;;;16.80;87.40;;;;;;6250063;22;20058;-86
2023/05/23 01:25:48;;;;;;;7.95;6.20;;;16.70;87.20;;;;;;6277190;22;20438;-84
2023/05/23 01:28:20;;;;;;;8.38;6.43;;;16.80;87.40;;;;;;6250432;22;20458;-87
2023/05/23 01:30:49;;;;;;;7.70;5.85;;;16.70;87.20;;;;;;6277618;22;20256;-85
2023/05/23 01:33:16;;;;;;;7.80;5.95;;;16.80;87.10;;;;;;6250416;22;20449;-86
2023/05/23 01:35:43;;;;;;;8.63;6.10;;;16.80;87.00;;;;;;6253179;22;19996;-85
2023/05/23 01:38:08;;;;;;;7.43;5.82;;;16.90;87.40;;;;;;6257284;22;20000;-86
2023/05/23 01:40:35;;;;;;;8.02;6.25;;;16.90;86.80;;;;;;6256838;22;20039;-86
2023/05/23 01:43:01;;;;;;;8.05;5.80;;;16.90;86.70;;;;;;6284050;22;20023;-86
2023/05/23 01:45:28;;;;;;;7.55;5.85;;;16.90;86.60;;;;;;6255937;22;20434;-85
2023/05/23 01:47:54;;;;;;;7.97;6.28;;;16.90;86.60;;;;;;6282456;22;19996;-85
2023/05/23 01:50:21;;;;;;;8.02;5.93;;;16.90;86.50;;;;;;6281273;22;19999;-86
2023/05/23 01:52:46;;;;;;;8.60;6.30;;;16.90;86.40;;;;;;6281305;22;20000;-85
2023/05/23 01:55:15;;;;;;;7.70;5.90;;;17.00;86.50;;;;;;6253538;22;20007;-86
2023/05/23 01:57:41;;;;;;;8.30;6.05;;;16.90;86.50;;;;;;6253041;22;20000;-86
2023/05/23 02:00:09;;;;;;;7.90;6.03;;;16.90;86.70;;;;;;6252389;22;20369;-82
2023/05/23 02:02:35;;;;;;;8.50;6.38;;;16.90;86.80;;;;;;6252730;22;20503;-86
2023/05/23 02:05:01;;;;;;;7.93;6.03;;;16.90;86.90;;;;;;6279295;22;20003;-84
2023/05/23 02:07:27;;;;;;;7.90;5.97;;;16.90;87.00;;;;;;6251360;22;20007;-86
2023/05/23 02:09:53;;;;;;;8.55;6.55;;;16.80;87.00;;;;;;6251583;22;20051;-86
2023/05/23 02:12:18;;;;;;;7.65;5.88;;;16.80;87.10;;;;;;6250240;22;20345;-85
2023/05/23 02:14:44;;;;;;;7.60;6.05;;;16.80;87.10;;;;;;6277480;22;20079;-85
2023/05/23 02:17:09;;;;;;;8.05;5.90;;;16.80;87.20;;;;;;6277635;22;20004;-85
2023/05/23 02:19:36;;;;;;;7.22;5.72;;;16.80;87.30;;;;;;6250460;22;20426;-87
2023/05/23 02:22:02;;;;;;;7.53;6.03;;;16.80;87.30;;;;;;6277122;22;20004;-86
2023/05/23 02:24:28;;;;;;;8.60;6.15;;;16.80;87.40;;;;;;6249706;22;20088;-87
2023/05/23 02:26:53;;;;;;;7.80;5.75;;;16.80;87.90;;;;;;6250230;22;20011;-86
2023/05/23 02:29:19;;;;;;;7.80;5.88;;;16.80;87.40;;;;;;6249390;22;20011;-86
2023/05/23 02:31:44;;;;;;;7.00;5.18;;;16.80;87.40;;;;;;6276308;22;20330;-87
2023/05/23 02:34:41;;;;;;;6.80;5.35;;;16.80;87.30;;;;;;6248756;22;20031;-86
2023/05/23 02:37:06;;;;;;;8.10;6.10;;;16.80;87.40;;;;;;6246831;22;20008;-86
2023/05/23 02:39:35;;;;;;;7.85;6.00;;;16.70;87.30;;;;;;6249396;22;20390;-86
2023/05/23 02:42:01;;;;;;;7.53;5.97;;;16.80;87.40;;;;;;6248810;22;20007;-86
2023/05/23 02:44:27;;;;;;;8.57;6.00;;;16.70;87.20;;;;;;6248956;22;20386;-86
2023/05/23 02:46:52;;;;;;;7.57;5.65;;;16.80;87.10;;;;;;6249330;22;20010;-86
2023/05/23 02:49:18;;;;;;;7.90;6.07;;;16.70;87.10;;;;;;6249266;22;20053;-87
2023/05/23 02:51:43;;;;;;;7.75;5.72;;;16.80;87.20;;;;;;6248752;22;20011;-87
2023/05/23 02:54:08;;;;;;;7.75;6.10;;;16.80;87.20;;;;;;6248875;22;20093;-86
2023/05/23 02:56:34;;;;;;;7.55;5.85;;;16.80;87.30;;;;;;6248894;22;20429;-85
2023/05/23 02:58:59;;;;;;;7.63;5.85;;;16.80;87.30;;;;;;6248724;22;20028;-87
2023/05/23 03:01:25;;;;;;;7.55;5.70;;;16.70;87.40;;;;;;6275892;22;19999;-86
2023/05/23 03:03:50;;;;;;;7.47;5.90;;;16.80;87.40;;;;;;6255158;22;20034;-87
2023/05/23 03:06:16;;;;;;;7.85;5.90;;;16.80;87.50;;;;;;6256101;22;20384;-86
2023/05/23 03:08:41;;;;;;;7.30;5.70;;;16.70;87.40;;;;;;6255318;22;20014;-86
2023/05/23 03:11:07;;;;;;;7.32;5.60;;;16.80;87.50;;;;;;6253448;22;20035;-87
2023/05/23 03:13:34;;;;;;;7.47;5.63;;;16.80;87.40;;;;;;6280488;22;19995;-87
2023/05/23 03:15:59;;;;;;;7.85;5.80;;;16.80;87.20;;;;;;6253049;22;20003;-86
2023/05/23 03:18:25;;;;;;;8.10;5.95;;;16.80;87.10;;;;;;6252694;22;20456;-86
2023/05/23 03:20:50;;;;;;;7.22;5.57;;;16.90;87.10;;;;;;6251161;22;20011;-86
2023/05/23 03:23:15;;;;;;;7.28;5.60;;;16.90;86.90;;;;;;6278391;22;20488;-87
2023/05/23 03:25:42;;;;;;;7.75;5.65;;;16.90;86.80;;;;;;6250683;22;19995;-88
2023/05/23 03:28:07;;;;;;;7.38;5.50;;;16.90;86.80;;;;;;6276264;22;20345;-85
2023/05/23 03:30:35;;;;;;;7.47;5.47;;;16.90;86.70;;;;;;6243685;22;20126;-86
2023/05/23 03:33:01;;;;;;;7.28;5.47;;;16.90;86.60;;;;;;6242560;22;19995;-86
2023/05/23 03:35:29;;;;;;;7.18;5.50;;;16.90;86.60;;;;;;6243621;22;20015;-86
2023/05/23 03:38:00;;;;;;;8.77;5.70;;;17.20;86.80;;;;;;6271005;22;20053;-87
2023/05/23 03:40:33;;;;;;;8.18;5.68;;;16.90;86.70;;;;;;6243842;22;20243;-87
2023/05/23 03:43:05;;;;;;;7.57;5.78;;;16.80;86.80;;;;;;6243844;22;20082;-87
2023/05/23 03:45:31;;;;;;;7.70;5.70;;;17.00;87.00;;;;;;6243478;22;20507;-87
2023/05/23 03:48:00;;;;;;;7.40;5.45;;;17.00;87.10;;;;;;6241228;22;20438;-86
2023/05/23 03:50:28;;;;;;;7.03;5.38;;;16.90;87.10;;;;;;6241674;22;20053;-88
2023/05/23 03:52:54;;;;;;;7.32;5.05;;;18.00;87.80;;;;;;6242756;22;20077;-85
2023/05/23 03:55:24;;;;;;;7.72;5.30;;;16.80;87.20;;;;;;6243052;22;20000;-86
2023/05/23 03:57:53;;;;;;;7.32;5.40;;;17.20;87.50;;;;;;6242560;22;20054;-86
2023/05/23 04:00:19;;;;;;;7.20;5.53;;;16.80;87.30;;;;;;6243238;22;20276;-86
2023/05/23 04:02:45;;;;;;;7.15;5.70;;;16.80;87.30;;;;;;6243656;22;20330;-85
2023/05/23 04:05:12;;;;;;;7.18;5.65;;;16.80;87.40;;;;;;6243008;22;20107;-85
2023/05/23 04:07:37;;;;;;;7.32;5.63;;;17.60;87.80;;;;;;6240286;22;20008;-84
2023/05/23 04:10:04;;;;;;;7.22;5.38;;;16.90;87.50;;;;;;6242365;22;20422;-85
2023/05/23 04:12:33;;;;;;;7.50;5.60;;;16.80;87.40;;;;;;6240850;22;20087;-83
2023/05/23 04:14:58;;;;;;;7.20;5.18;;;16.80;87.50;;;;;;6269889;22;20053;-84
2023/05/23 04:25:11;;;;;;;7.20;5.35;;;16.60;87.30;;;;;;6111239;23;19911;-86
2023/05/23 04:28:12;;;;;;;7.70;5.38;;;16.70;87.30;;;;;;6094280;23;20010;-86
2023/05/23 04:37:49;;;;;;;7.68;5.43;;;16.70;87.30;;;;;;6212592;23;20023;-86
2023/05/23 04:58:39;;;;;;;7.60;5.53;;;16.80;87.30;;;;;;5978163;23;20044;-86
2023/05/23 05:05:12;;;;;;;7.55;5.72;;;16.60;87.50;;;;;;6181622;23;20039;-86
2023/05/23 05:08:05;;;;;;;7.38;5.30;;;16.60;86.80;;;;;;6178918;23;20486;-86
2023/05/23 05:10:49;;;;;;;7.60;5.43;;;16.90;86.90;;;;;;6155169;23;20463;-87
2023/05/23 05:13:49;;;;;;;7.70;5.57;;;17.00;86.90;;;;;;6154422;23;20462;-86
2023/05/23 05:16:35;;;;;;;;;;;16.90;86.80;;;;;;6143759;23;20009;-86
2023/05/23 05:19:00;;;;;;;7.68;5.70;;;17.00;86.90;;;;;;6154750;23;20017;-87
2023/05/23 05:21:47;;;;;;;7.28;5.32;;;16.90;87.00;;;;;;6197670;22;20102;-85
2023/05/23 05:28:22;;;;;;;7.60;5.72;;;16.90;87.00;;;;;;6150102;23;20499;-86
2023/05/23 05:31:39;;;;;;;8.40;5.93;;;16.80;87.40;;;;;;6126369;23;20041;-86
2023/05/23 05:34:05;;;;;;;7.78;5.63;;;16.80;87.50;;;;;;6123835;23;20320;-86
2023/05/23 05:36:31;;;;;;;9.43;6.80;;;16.80;87.60;;;;;;6129602;23;20002;-86
2023/05/23 05:38:56;;;;;;;8.70;6.55;;;16.80;87.70;;;;;;6231089;22;20004;-85
2023/05/23 05:41:22;;;;;;;8.68;6.38;;;16.80;87.70;;;;;;6250781;22;20460;-86
2023/05/23 05:43:47;;;;;;;9.20;6.47;;;16.80;87.80;;;;;;6250623;22;20007;-87
2023/05/23 05:46:13;;;;;;;9.55;6.97;;;16.70;87.80;;;;;;6277299;22;20511;-85
2023/05/23 05:48:38;;;;;;;10.23;6.93;;;16.80;87.90;;;;;;6277635;22;20074;-85
2023/05/23 05:51:04;;;;;;;8.75;6.45;;;16.80;87.90;;;;;;6249857;22;20000;-87
2023/05/23 05:53:29;;;;;;;8.90;6.50;;;16.80;87.80;;;;;;6250464;22;20074;-86
2023/05/23 05:55:55;;;;;;;8.82;6.72;;;16.70;87.80;;;;;;6277970;22;19999;-86
2023/05/23 05:58:20;;;;;;;8.50;6.22;;;16.80;87.80;;;;;;6250829;22;19996;-86
2023/05/23 06:00:47;;;;;;;9.02;6.18;;;16.80;87.80;;;;;;6277549;22;19996;-86
2023/05/23 06:03:14;;;;;;;8.75;6.80;;;16.80;87.70;;;;;;6277614;22;20474;-85
2023/05/23 06:05:40;;;;;;;9.20;6.38;;;16.70;87.70;;;;;;6250450;22;20451;-86
2023/05/23 06:08:05;;;;;;;8.93;6.60;;;16.80;87.70;;;;;;6277171;22;20006;-86
2023/05/23 06:10:31;;;;;;;8.85;5.93;;;16.70;87.60;;;;;;6250174;22;19996;-87
2023/05/23 06:12:57;;;;;;;9.80;6.22;;;16.70;87.60;;;;;;6249919;22;20003;-86
2023/05/23 06:15:23;;;;;;;9.20;6.47;;;16.70;87.60;;;;;;6249947;22;20457;-85
2023/05/23 06:17:48;;;;;;;8.90;6.10;;;16.70;87.60;;;;;;6277178;22;20031;-86
2023/05/23 06:20:14;;;;;;;11.02;7.25;;;16.80;87.60;;;;;;6277076;22;20006;-87
2023/05/23 06:22:39;;;;;;;9.82;6.22;;;16.70;87.60;;;;;;6277742;22;20035;-86
2023/05/23 06:25:05;;;;;;;8.50;6.30;;;16.70;87.60;;;;;;6251216;22;20267;-84
2023/05/23 06:27:31;;;;;;;8.68;6.07;;;16.70;87.70;;;;;;6248689;22;20043;-83
2023/05/23 06:29:56;;;;;;;9.48;6.32;;;16.70;87.60;;;;;;6248620;22;20037;-83
2023/05/23 06:32:22;;;;;;;8.68;6.32;;;16.70;87.70;;;;;;6248533;22;20040;-83
2023/05/23 06:34:47;;;;;;;8.10;6.47;;;16.70;87.70;;;;;;6248535;22;20061;-84
2023/05/23 06:37:13;;;;;;;8.15;6.03;;;16.80;87.60;;;;;;6248744;22;19999;-84
2023/05/23 06:39:38;;;;;;;9.02;6.05;;;16.80;87.60;;;;;;6275771;22;20004;-84
2023/05/23 06:42:04;;;;;;;8.85;6.60;;;16.80;87.50;;;;;;6248400;22;20006;-85
2023/05/23 06:44:30;;;;;;;10.30;6.70;;;16.90;87.40;;;;;;6248440;22;20014;-85
2023/05/23 06:46:57;;;;;;;8.93;6.43;;;16.80;87.20;;;;;;6248508;22;20007;-84
2023/05/23 06:49:23;;;;;;;8.18;5.80;;;16.90;87.20;;;;;;6248733;22;20086;-84
2023/05/23 06:51:49;;;;;;;8.52;6.45;;;16.90;87.10;;;;;;6247944;22;20046;-84
2023/05/23 06:54:15;;;;;;;8.40;5.88;;;16.90;87.00;;;;;;6248484;22;20000;-84
2023/05/23 06:56:40;;;;;;;8.77;6.03;;;16.90;87.00;;;;;;6248215;22;20007;-84
2023/05/23 06:59:06;;;;;;;9.13;6.10;;;16.90;87.00;;;;;;6248391;22;20492;-84
2023/05/23 07:01:31;;;;;;;8.35;6.38;;;16.90;87.00;;;;;;6275137;22;20035;-83
2023/05/23 07:03:57;;;;;;;8.95;6.40;;;16.90;87.10;;;;;;6248254;22;20014;-83
2023/05/23 07:06:22;;;;;;;8.65;6.22;;;16.90;87.10;;;;;;6248200;22;20008;-83
2023/05/23 07:08:48;;;;;;;8.65;6.30;;;16.90;87.30;;;;;;6248911;22;20000;-83
2023/05/23 07:11:13;;;;;;;8.65;6.00;;;16.80;87.30;;;;;;6274468;22;20004;-84
2023/05/23 07:13:39;;;;;;;9.52;6.50;;;16.80;87.30;;;;;;6248146;22;20004;-83
2023/05/23 07:16:05;;;;;;;9.10;6.60;;;16.80;87.40;;;;;;6275304;22;20042;-84
2023/05/23 07:18:30;;;;;;;8.27;6.10;;;16.80;87.40;;;;;;6248216;22;20003;-83
2023/05/23 07:20:56;;;;;;;8.40;5.93;;;16.80;87.40;;;;;;6247766;22;20034;-83
2023/05/23 07:23:23;;;;;;;9.35;6.18;;;16.80;87.50;;;;;;6248258;22;20004;-83
2023/05/23 07:25:48;;;;;;;8.70;6.07;;;16.80;87.50;;;;;;6275238;22;20030;-83
2023/05/23 07:28:14;;;;;;;8.35;6.03;;;16.80;87.50;;;;;;6248233;22;20518;-83
2023/05/23 07:30:40;;;;;;;8.45;6.05;;;16.70;87.50;;;;;;6247487;22;20018;-84
2023/05/23 07:33:06;;;;;;;7.72;5.65;;;16.80;87.60;;;;;;6275206;22;20022;-83
2023/05/23 07:35:31;;;;;;;7.88;5.72;;;16.80;87.60;;;;;;6247767;22;20521;-84
2023/05/23 07:37:57;;;;;;;8.52;5.88;;;16.70;87.50;;;;;;6248349;22;20006;-83
2023/05/23 07:40:22;;;;;;;7.18;5.35;;;16.80;87.60;;;;;;6247885;22;20000;-83
2023/05/23 07:42:48;;;;;;;7.97;5.70;;;16.70;87.50;;;;;;6247960;22;20007;-84
2023/05/23 07:45:13;;;;;;;8.73;5.90;;;16.70;87.50;;;;;;6275286;22;20000;-83
2023/05/23 07:47:40;;;;;;;8.50;6.03;;;16.70;87.50;;;;;;6247979;22;20008;-84
2023/05/23 07:50:06;;;;;;;9.25;6.10;;;16.80;87.60;;;;;;6274728;22;20057;-83
2023/05/23 07:52:32;;;;;;;9.23;5.90;;;16.70;87.50;;;;;;6247753;22;20004;-83
2023/05/23 07:54:58;;;;;;;7.63;5.68;;;16.70;87.40;;;;;;6247814;22;20380;-83
2023/05/23 07:57:24;;;;;;;8.40;5.72;;;16.70;87.50;;;;;;6247987;22;20000;-84
2023/05/23 07:59:51;;;;;;;8.70;5.70;;;16.70;87.50;;;;;;6247772;22;20346;-84
2023/05/23 08:02:16;;;;;;;7.30;5.45;;;16.70;87.40;;;;;;6275292;22;20421;-84
2023/05/23 08:04:42;;;;;;;8.80;5.80;;;16.70;87.40;;;;;;6247644;22;20087;-84
2023/05/23 08:07:08;;;;;;;7.25;5.13;;;16.70;87.40;;;;;;6248060;22;20322;-83
2023/05/23 08:09:34;;;;;;;8.60;5.57;;;16.70;87.40;;;;;;6247776;22;20090;-85
2023/05/23 08:11:59;;;;;;;7.55;5.35;;;16.70;87.40;;;;;;6248877;22;20389;-84
2023/05/23 08:14:25;;;;;;;7.60;4.88;;;16.80;87.90;;;;;;6250151;22;19999;-84
2023/05/23 08:16:50;;;;;;;8.15;5.32;;;16.80;87.50;;;;;;6249866;22;20445;-84
2023/05/23 08:19:16;;;;;;;7.18;4.72;;;16.80;87.40;;;;;;6250187;22;20003;-84
2023/05/23 08:21:42;;;;;;;7.30;4.60;;;16.80;87.30;;;;;;6249585;22;20089;-84
2023/05/23 08:24:07;;;;;;;7.40;4.93;;;16.80;87.30;;;;;;6249891;22;20018;-84
2023/05/23 08:26:34;;;;;;;8.52;5.15;;;16.80;87.20;;;;;;6249726;22;20014;-84
2023/05/23 08:29:01;;;;;;;7.95;4.85;;;16.90;87.60;;;;;;6249814;22;20035;-83
2023/05/23 08:31:27;;;;;;;7.90;4.60;;;16.90;87.00;;;;;;6249563;22;20004;-83
2023/05/23 08:33:53;;;;;;;6.75;4.47;;;16.90;87.00;;;;;;6249636;22;20057;-83
2023/05/23 08:36:18;;;;;;;7.18;4.30;;;16.90;87.00;;;;;;6249717;22;20079;-84
2023/05/23 08:38:43;;;;;;;6.57;4.15;;;16.90;86.90;;;;;;6249632;22;20007;-84
2023/05/23 08:41:17;;;;;;;6.43;3.97;;;16.90;87.40;;;;;;6249638;22;20003;-84
2023/05/23 08:43:43;;;;;;;7.57;4.20;;;16.90;86.90;;;;;;6249828;22;20014;-83
2023/05/23 08:46:09;;;;;;;7.47;4.65;;;16.90;86.80;;;;;;6276607;22;20008;-83
2023/05/23 08:48:37;;;;;;;6.63;4.25;;;16.80;86.80;;;;;;6276647;22;20070;-83
2023/05/23 08:51:03;;;;;;;6.53;4.38;;;16.90;86.80;;;;;;6249468;22;20503;-83
2023/05/23 08:53:31;;;;;;;7.18;4.38;;;16.80;86.80;;;;;;6249776;22;20023;-84
2023/05/23 08:56:01;;;;;;;6.75;3.80;;;16.80;86.90;;;;;;6249623;22;20073;-85
2023/05/23 08:58:28;;;;;;;6.40;3.95;;;16.80;86.90;;;;;;6249871;22;20000;-83
2023/05/23 09:00:54;;;;;;;6.47;4.07;;;16.80;87.00;;;;;;6249550;22;20334;-83
2023/05/23 09:03:20;;;;;;;6.60;4.32;;;16.80;86.90;;;;;;6276636;22;20000;-83
2023/05/23 09:05:46;;;;;;;7.03;4.20;;;16.80;87.00;;;;;;6249454;22;20377;-84
2023/05/23 09:08:12;;;;;;;6.63;4.10;;;16.80;87.00;;;;;;6249659;22;20083;-83
2023/05/23 09:10:38;;;;;;;6.70;4.25;;;16.80;86.90;;;;;;6249002;22;20394;-83
2023/05/23 09:13:04;;;;;;;6.43;4.00;;;16.80;87.00;;;;;;6249665;22;20027;-83
2023/05/23 09:15:30;;;;;;;7.03;4.28;;;16.80;87.00;;;;;;6249307;22;20000;-83
2023/05/23 09:18:02;;;;;;;6.55;4.03;;;16.80;87.00;;;;;;6249401;22;20449;-83
2023/05/23 09:20:28;;;;;;;6.60;4.10;;;16.80;87.00;;;;;;6248987;22;20019;-83
2023/05/23 09:22:54;;;;;;;7.43;4.03;;;16.80;87.00;;;;;;6249322;22;20019;-83
2023/05/23 09:25:20;;;;;;;6.47;3.97;;;16.70;87.00;;;;;;6276456;22;20043;-83
2023/05/23 09:27:46;;;;;;;7.13;4.03;;;16.80;87.10;;;;;;6249671;22;20018;-83
2023/05/23 09:30:12;;;;;;;6.30;4.00;;;16.80;87.00;;;;;;6249164;22;20014;-83
2023/05/23 09:32:38;;;;;;;7.15;4.07;;;16.70;86.90;;;;;;6248979;22;20004;-83
2023/05/23 09:35:05;;;;;;;6.22;3.53;;;16.80;86.90;;;;;;6249256;22;20010;-83
2023/05/23 09:37:36;;;;;;;6.90;3.92;;;16.70;86.90;;;;;;6249312;22;20007;-83
2023/05/23 09:40:13;;;;;;;6.80;3.83;;;16.70;86.90;;;;;;6249208;22;20591;-81
2023/05/23 09:42:43;;;;;;;6.43;3.88;;;16.70;86.90;;;;;;6248881;22;20015;-84
2023/05/23 09:45:09;;;;;;;6.00;3.65;;;16.80;87.00;;;;;;6249093;22;20047;-82
2023/05/23 09:47:35;;;;;;;6.85;3.75;;;16.80;86.90;;;;;;6276081;22;20006;-82
2023/05/23 09:50:01;;;;;;;7.20;4.00;;;16.70;86.80;;;;;;6248731;22;19995;-84
2023/05/23 09:52:26;;;;;;;6.82;3.40;;;16.80;86.90;;;;;;6276449;22;20004;-82
2023/05/23 09:54:54;;;;;;;6.30;3.90;;;16.80;87.40;;;;;;6248767;22;20011;-84
2023/05/23 09:57:22;;;;;;;6.25;3.75;;;16.80;86.90;;;;;;6249367;22;20004;-84
2023/05/23 09:59:53;;;;;;;7.15;3.72;;;16.80;86.80;;;;;;6249098;22;20012;-84
2023/05/23 10:02:49;;;;;;;6.20;3.75;;;16.80;86.70;;;;;;6249063;22;20109;-83
2023/05/23 10:05:32;;;;;;;6.43;4.13;;;16.80;86.60;;;;;;6226548;22;20014;-84
2023/05/23 10:08:06;;;;;;;6.32;3.85;;;16.80;86.50;;;;;;6276100;22;20071;-83
2023/05/23 10:10:32;;;;;;;6.40;3.50;;;16.90;86.40;;;;;;6248889;22;20004;-82
2023/05/23 10:13:01;;;;;;;7.30;4.10;;;16.90;86.30;;;;;;6248961;22;20004;-83
2023/05/23 10:15:33;;;;;;;6.68;3.83;;;16.90;86.30;;;;;;6275942;22;20434;-83
2023/05/23 10:18:08;;;;;;;6.32;3.70;;;16.90;86.20;;;;;;6248700;22;19999;-83
2023/05/23 10:20:35;;;;;;;6.43;3.47;;;16.90;86.20;;;;;;6248512;22;20422;-83
2023/05/23 10:23:04;;;;;;;6.25;3.50;;;16.90;86.00;;;;;;6248724;22;20011;-83
2023/05/23 10:25:29;;;;;;;7.03;3.80;;;16.90;86.00;;;;;;6248895;22;20061;-83
2023/05/23 10:27:57;;;;;;;5.55;3.33;;;16.90;86.50;;;;;;6248771;22;20035;-83
2023/05/23 10:30:24;;;;;;;6.13;3.70;;;16.90;86.50;;;;;;6248505;22;20086;-82
2023/05/23 10:32:51;;;;;;;7.35;3.80;;;16.90;86.00;;;;;;6275633;22;20086;-85
2023/05/23 10:35:55;;;;;;;6.22;3.63;;;16.90;86.00;;;;;;6248695;22;20000;-83
2023/05/23 10:38:35;;;;;;;6.57;3.35;;;16.90;86.10;;;;;;6248671;22;20045;-83
2023/05/23 10:41:22;;;;;;;6.32;3.90;;;16.80;86.10;;;;;;6248609;22;20464;-83
2023/05/23 10:44:01;;;;;;;7.60;3.50;;;16.90;86.30;;;;;;6248472;22;20037;-84
2023/05/23 10:46:50;;;;;;;6.18;3.55;;;16.80;86.70;;;;;;6248502;22;20011;-84
2023/05/23 10:49:16;;;;;;;6.22;3.42;;;16.80;86.40;;;;;;6248730;22;20069;-83
2023/05/23 10:51:41;;;;;;;6.00;3.20;;;16.80;86.20;;;;;;6248136;22;20004;-83
2023/05/23 10:54:10;;;;;;;6.10;3.22;;;16.90;86.20;;;;;;6275783;22;20422;-83
2023/05/23 10:56:36;;;;;;;6.07;3.33;;;16.90;86.10;;;;;;6248103;22;20069;-83
2023/05/23 10:59:05;;;;;;;5.40;3.30;;;16.90;86.00;;;;;;6275546;22;19996;-83
2023/05/23 11:01:31;;;;;;;5.95;3.35;;;16.90;85.90;;;;;;6248136;22;20095;-83
2023/05/23 11:03:56;;;;;;;5.15;3.17;;;16.90;86.00;;;;;;6248470;22;20035;-83
2023/05/23 11:06:37;;;;;;;6.30;3.55;;;16.90;85.90;;;;;;6248458;22;20008;-83
2023/05/23 11:09:13;;;;;;;5.57;3.05;;;16.90;85.80;;;;;;6248375;22;20087;-84
2023/05/23 11:12:08;;;;;;;6.20;3.40;;;16.90;85.80;;;;;;6274989;22;20057;-85
2023/05/23 11:14:37;;;;;;;6.40;3.25;;;16.90;85.90;;;;;;6275212;22;20358;-82
2023/05/23 11:17:11;;;;;;;6.43;3.33;;;16.90;85.90;;;;;;6248091;22;20007;-84
2023/05/23 11:19:58;;;;;;;6.65;3.00;;;16.90;85.80;;;;;;6248119;22;20076;-83
2023/05/23 11:22:30;;;;;;;6.22;3.42;;;16.90;85.80;;;;;;6248105;22;20004;-84
2023/05/23 11:24:57;;;;;;;6.03;3.00;;;16.90;85.80;;;;;;6248096;22;20045;-83
2023/05/23 11:27:27;;;;;;;7.25;3.25;;;16.90;85.90;;;;;;6248605;22;20018;-84
2023/05/23 11:30:14;;;;;;;5.85;3.15;;;16.90;85.90;;;;;;6247839;22;20031;-84
2023/05/23 11:32:41;;;;;;;6.05;3.20;;;16.90;85.90;;;;;;6247730;22;20008;-85
2023/05/23 11:35:09;;;;;;;6.55;3.50;;;16.90;85.90;;;;;;6248014;22;20000;-82
2023/05/23 11:37:36;;;;;;;7.38;3.80;;;16.90;85.90;;;;;;6248473;22;20266;-82
2023/05/23 11:40:29;;;;;;;6.80;3.42;;;16.80;85.90;;;;;;6248048;22;20385;-83
2023/05/23 11:42:55;;;;;;;7.55;3.30;;;16.90;85.80;;;;;;6275096;22;20004;-83
2023/05/23 11:45:22;;;;;;;6.95;3.38;;;16.90;85.80;;;;;;6248263;22;20014;-83
2023/05/23 11:47:47;;;;;;;6.88;3.35;;;16.90;85.70;;;;;;6247736;22;20420;-83
2023/05/23 11:50:14;;;;;;;7.03;3.25;;;16.90;85.60;;;;;;6247837;22;20024;-84
2023/05/23 11:52:40;;;;;;;6.32;3.55;;;17.00;85.50;;;;;;6247808;22;20033;-84
2023/05/23 11:55:07;;;;;;;6.45;3.35;;;17.00;85.30;;;;;;6248434;22;20425;-83
2023/05/23 11:57:32;;;;;;;7.13;3.30;;;17.00;85.60;;;;;;6247946;22;20166;-83
2023/05/23 11:59:58;;;;;;;6.60;3.22;;;17.00;85.00;;;;;;6247958;22;20090;-83
2023/05/23 12:02:27;;;;;;;5.80;3.22;;;17.00;84.90;;;;;;6247845;22;20053;-83
2023/05/23 12:04:52;;;;;;;5.97;2.90;;;17.10;84.90;;;;;;6274742;22;20430;-83
2023/05/23 12:07:21;;;;;;;7.18;3.58;;;17.10;84.80;;;;;;6248374;22;20034;-83
2023/05/23 12:09:46;;;;;;;6.45;3.20;;;17.10;84.70;;;;;;6274785;22;20019;-82
2023/05/23 12:12:12;;;;;;;6.95;3.17;;;17.10;84.60;;;;;;6247711;22;20008;-83
2023/05/23 12:14:43;;;;;;;5.90;3.08;;;17.10;84.40;;;;;;6274709;22;20426;-83
2023/05/23 12:17:11;;;;;;;6.60;3.00;;;17.20;84.30;;;;;;6248180;22;20380;-83
2023/05/23 12:19:37;;;;;;;7.15;3.40;;;17.10;84.20;;;;;;6247734;22;20011;-84
2023/05/23 12:22:07;;;;;;;6.05;3.08;;;17.10;84.20;;;;;;6247850;22;20426;-83
2023/05/23 12:24:33;;;;;;;6.25;2.90;;;17.10;84.30;;;;;;6248133;22;20057;-83
2023/05/23 12:27:00;;;;;;;6.90;3.08;;;17.10;84.40;;;;;;6249543;22;20019;-85
2023/05/23 12:29:31;;;;;;;6.93;3.20;;;17.10;84.50;;;;;;6251843;22;20145;-87
2023/05/23 12:32:01;;;;;;;7.43;3.20;;;17.10;84.20;;;;;;6249281;22;20012;-84
2023/05/23 12:34:27;;;;;;;5.55;3.10;;;17.10;84.30;;;;;;6275575;22;20070;-84
2023/05/23 12:37:02;;;;;;;5.97;3.15;;;17.10;84.20;;;;;;6248152;22;20029;-84
2023/05/23 12:39:29;;;;;;;6.90;3.20;;;17.10;84.30;;;;;;6251318;22;20315;-84
2023/05/23 12:42:05;;;;;;;6.70;2.90;;;17.10;84.30;;;;;;6251304;22;20061;-84
2023/05/23 12:44:31;;;;;;;6.03;3.10;;;17.00;84.80;;;;;;6251550;22;20082;-85
2023/05/23 12:46:56;;;;;;;6.30;3.10;;;17.10;84.50;;;;;;6250716;22;20461;-84
2023/05/23 12:49:22;;;;;;;7.47;3.17;;;17.10;84.30;;;;;;6250870;22;20418;-84
2023/05/23 12:51:47;;;;;;;7.20;2.85;;;17.00;84.40;;;;;;6276815;22;20015;-84
2023/05/23 12:54:13;;;;;;;6.55;3.08;;;17.10;84.30;;;;;;6247621;22;20011;-84
2023/05/23 12:56:38;;;;;;;6.80;3.05;;;17.10;84.40;;;;;;6247999;22;20065;-84
2023/05/23 12:59:04;;;;;;;5.43;2.60;;;17.10;84.40;;;;;;6278068;22;20496;-85
2023/05/23 13:01:30;;;;;;;5.20;2.72;;;17.10;84.30;;;;;;6252126;22;19999;-84
2023/05/23 13:03:55;;;;;;;5.25;2.72;;;17.10;84.30;;;;;;6252357;22;20015;-85
2023/05/23 13:06:21;;;;;;;7.15;3.53;;;17.10;84.30;;;;;;6252443;22;20008;-84
2023/05/23 13:08:49;;;;;;;7.57;3.58;;;17.10;84.30;;;;;;6271345;22;20104;-86
2023/05/23 13:11:14;;;;;;;6.55;3.08;;;17.10;84.30;;;;;;6245789;22;20035;-83
2023/05/23 13:13:40;;;;;;;6.93;3.30;;;17.10;84.20;;;;;;6245156;22;20202;-85
2023/05/23 13:16:06;;;;;;;5.75;2.60;;;17.10;84.10;;;;;;6271908;22;20003;-81
2023/05/23 13:18:31;;;;;;;6.13;2.78;;;17.10;84.10;;;;;;6245159;22;20056;-80
2023/05/23 13:20:57;;;;;;;4.47;2.38;;;17.10;84.10;;;;;;6242988;22;19995;-80
2023/05/23 13:23:24;;;;;;;7.05;3.10;;;17.10;84.00;;;;;;6244769;22;20014;-81
2023/05/23 13:25:50;;;;;;;6.43;3.33;;;17.10;84.10;;;;;;6245701;22;20015;-86
2023/05/23 13:28:16;;;;;;;7.53;3.28;;;17.10;84.10;;;;;;6244362;22;20787;-84
2023/05/23 13:30:42;;;;;;;6.80;2.92;;;17.10;84.00;;;;;;6271411;22;19999;-83
2023/05/23 13:33:07;;;;;;;6.75;3.30;;;17.10;84.00;;;;;;6244719;22;20007;-81
2023/05/23 13:35:33;;;;;;;6.45;2.92;;;18.20;84.40;;;;;;6243807;22;20402;-81